sensor_id;sensor_type;location;lat;lon;timestamp;temperature;humidity
59572;DHT22;59406;45.602;11.904;2022-10-16T00:01:10;19.40;80.20
59572;DHT22;59406;45.602;11.904;2022-10-16T00:03:38;19.40;81.00
59572;DHT22;59406;45.602;11.904;2022-10-16T00:06:06;19.30;80.60
59572;DHT22;59406;45.602;11.904;2022-10-16T00:08:32;19.40;80.50
59572;DHT22;59406;45.602;11.904;2022-10-16T00:11:01;19.20;80.80
59572;DHT22;59406;45.602;11.904;2022-10-16T00:13:27;19.20;80.90
59572;DHT22;59406;45.602;11.904;2022-10-16T00:15:55;19.10;81.30
59572;DHT22;59406;45.602;11.904;2022-10-16T00:18:22;19.00;81.50
59572;DHT22;59406;45.602;11.904;2022-10-16T00:20:48;19.10;81.50
59572;DHT22;59406;45.602;11.904;2022-10-16T00:23:14;19.10;81.20
59572;DHT22;59406;45.602;11.904;2022-10-16T00:25:40;19.20;81.20
59572;DHT22;59406;45.602;11.904;2022-10-16T00:28:06;19.10;81.00
59572;DHT22;59406;45.602;11.904;2022-10-16T00:30:32;19.30;80.90
59572;DHT22;59406;45.602;11.904;2022-10-16T00:32:58;19.20;80.90
59572;DHT22;59406;45.602;11.904;2022-10-16T00:35:24;19.30;80.80
59572;DHT22;59406;45.602;11.904;2022-10-16T00:37:49;19.30;80.90
59572;DHT22;59406;45.602;11.904;2022-10-16T00:40:16;19.30;80.90
59572;DHT22;59406;45.602;11.904;2022-10-16T00:42:42;19.20;81.00
59572;DHT22;59406;45.602;11.904;2022-10-16T00:45:09;19.30;81.10
59572;DHT22;59406;45.602;11.904;2022-10-16T00:47:39;19.30;81.00
59572;DHT22;59406;45.602;11.904;2022-10-16T00:50:29;19.30;80.80
59572;DHT22;59406;45.602;11.904;2022-10-16T00:52:57;19.30;81.10
59572;DHT22;59406;45.602;11.904;2022-10-16T00:55:25;19.20;81.00
59572;DHT22;59406;45.602;11.904;2022-10-16T00:57:51;19.20;81.40
59572;DHT22;59406;45.602;11.904;2022-10-16T01:00:23;19.10;81.50
59572;DHT22;59406;45.602;11.904;2022-10-16T01:02:59;19.10;81.90
59572;DHT22;59406;45.602;11.904;2022-10-16T01:05:34;19.00;82.00
59572;DHT22;59406;45.602;11.904;2022-10-16T01:10:40;19.10;81.60
59572;DHT22;59406;45.602;11.904;2022-10-16T01:13:14;19.00;81.40
59572;DHT22;59406;45.602;11.904;2022-10-16T01:18:22;19.20;81.20
59572;DHT22;59406;45.602;11.904;2022-10-16T01:21:05;19.10;81.50
59572;DHT22;59406;45.602;11.904;2022-10-16T01:29:30;19.10;81.60
59572;DHT22;59406;45.602;11.904;2022-10-16T01:32:11;19.20;82.00
59572;DHT22;59406;45.602;11.904;2022-10-16T01:34:48;19.20;81.30
59572;DHT22;59406;45.602;11.904;2022-10-16T01:37:18;19.00;81.70
59572;DHT22;59406;45.602;11.904;2022-10-16T01:39:47;19.00;81.60
59572;DHT22;59406;45.602;11.904;2022-10-16T01:42:21;19.10;81.60
59572;DHT22;59406;45.602;11.904;2022-10-16T01:44:50;19.00;81.70
59572;DHT22;59406;45.602;11.904;2022-10-16T01:47:18;18.90;82.00
59572;DHT22;59406;45.602;11.904;2022-10-16T01:49:46;18.90;81.90
59572;DHT22;59406;45.602;11.904;2022-10-16T01:52:17;18.80;82.10
59572;DHT22;59406;45.602;11.904;2022-10-16T01:54:48;18.80;81.90
59572;DHT22;59406;45.602;11.904;2022-10-16T01:57:15;18.80;82.00
59572;DHT22;59406;45.602;11.904;2022-10-16T01:59:48;18.80;82.20
59572;DHT22;59406;45.602;11.904;2022-10-16T02:02:18;18.80;82.30
59572;DHT22;59406;45.602;11.904;2022-10-16T02:04:55;18.70;82.40
59572;DHT22;59406;45.602;11.904;2022-10-16T02:07:24;18.70;82.40
59572;DHT22;59406;45.602;11.904;2022-10-16T02:09:50;18.70;82.40
59572;DHT22;59406;45.602;11.904;2022-10-16T02:12:31;18.70;82.40
59572;DHT22;59406;45.602;11.904;2022-10-16T02:14:59;18.60;83.20
59572;DHT22;59406;45.602;11.904;2022-10-16T02:17:25;18.50;82.70
59572;DHT22;59406;45.602;11.904;2022-10-16T02:19:54;18.50;82.90
59572;DHT22;59406;45.602;11.904;2022-10-16T02:22:27;18.50;82.90
59572;DHT22;59406;45.602;11.904;2022-10-16T02:25:01;18.50;82.90
59572;DHT22;59406;45.602;11.904;2022-10-16T02:30:19;18.50;83.50
59572;DHT22;59406;45.602;11.904;2022-10-16T02:32:48;18.50;83.10
59572;DHT22;59406;45.602;11.904;2022-10-16T02:35:20;18.50;83.20
59572;DHT22;59406;45.602;11.904;2022-10-16T02:37:49;18.50;83.40
59572;DHT22;59406;45.602;11.904;2022-10-16T02:40:16;18.40;83.20
59572;DHT22;59406;45.602;11.904;2022-10-16T02:42:43;18.40;83.70
59572;DHT22;59406;45.602;11.904;2022-10-16T02:45:10;18.40;83.50
59572;DHT22;59406;45.602;11.904;2022-10-16T02:47:36;18.50;83.40
59572;DHT22;59406;45.602;11.904;2022-10-16T02:50:03;18.50;83.30
59572;DHT22;59406;45.602;11.904;2022-10-16T02:52:29;18.50;83.30
59572;DHT22;59406;45.602;11.904;2022-10-16T02:54:55;18.60;83.10
59572;DHT22;59406;45.602;11.904;2022-10-16T02:57:21;18.60;82.90
59572;DHT22;59406;45.602;11.904;2022-10-16T02:59:47;18.60;83.00
59572;DHT22;59406;45.602;11.904;2022-10-16T03:02:12;18.70;82.70
59572;DHT22;59406;45.602;11.904;2022-10-16T03:04:38;18.70;82.90
59572;DHT22;59406;45.602;11.904;2022-10-16T03:07:04;18.70;83.00
59572;DHT22;59406;45.602;11.904;2022-10-16T03:09:30;18.70;83.00
59572;DHT22;59406;45.602;11.904;2022-10-16T03:11:56;18.70;82.90
59572;DHT22;59406;45.602;11.904;2022-10-16T03:14:21;18.70;82.90
59572;DHT22;59406;45.602;11.904;2022-10-16T03:16:47;18.90;82.80
59572;DHT22;59406;45.602;11.904;2022-10-16T03:19:13;18.70;82.70
59572;DHT22;59406;45.602;11.904;2022-10-16T03:21:39;18.80;82.90
59572;DHT22;59406;45.602;11.904;2022-10-16T03:24:05;18.80;83.00
59572;DHT22;59406;45.602;11.904;2022-10-16T03:26:31;18.80;82.90
59572;DHT22;59406;45.602;11.904;2022-10-16T03:28:56;18.80;82.80
59572;DHT22;59406;45.602;11.904;2022-10-16T03:31:22;18.80;83.00
59572;DHT22;59406;45.602;11.904;2022-10-16T03:33:48;18.70;83.20
59572;DHT22;59406;45.602;11.904;2022-10-16T03:36:14;18.70;83.20
59572;DHT22;59406;45.602;11.904;2022-10-16T03:38:39;18.60;83.50
59572;DHT22;59406;45.602;11.904;2022-10-16T03:41:05;18.60;83.60
59572;DHT22;59406;45.602;11.904;2022-10-16T03:43:33;18.50;83.70
59572;DHT22;59406;45.602;11.904;2022-10-16T03:45:59;18.50;83.60
59572;DHT22;59406;45.602;11.904;2022-10-16T03:48:25;18.50;83.70
59572;DHT22;59406;45.602;11.904;2022-10-16T03:50:51;18.40;83.90
59572;DHT22;59406;45.602;11.904;2022-10-16T03:53:17;18.40;83.50
59572;DHT22;59406;45.602;11.904;2022-10-16T03:55:44;18.30;83.50
59572;DHT22;59406;45.602;11.904;2022-10-16T03:58:10;18.40;83.40
59572;DHT22;59406;45.602;11.904;2022-10-16T04:00:41;18.30;83.40
59572;DHT22;59406;45.602;11.904;2022-10-16T04:03:07;18.20;83.80
59572;DHT22;59406;45.602;11.904;2022-10-16T04:05:33;18.10;85.00
59572;DHT22;59406;45.602;11.904;2022-10-16T04:07:59;17.90;85.00
59572;DHT22;59406;45.602;11.904;2022-10-16T04:10:25;17.80;84.90
59572;DHT22;59406;45.602;11.904;2022-10-16T04:12:52;17.90;84.90
59572;DHT22;59406;45.602;11.904;2022-10-16T04:15:20;17.80;85.00
59572;DHT22;59406;45.602;11.904;2022-10-16T04:17:46;17.70;85.00
59572;DHT22;59406;45.602;11.904;2022-10-16T04:20:12;17.70;85.10
59572;DHT22;59406;45.602;11.904;2022-10-16T04:22:38;17.60;85.20
59572;DHT22;59406;45.602;11.904;2022-10-16T04:25:05;17.60;85.30
59572;DHT22;59406;45.602;11.904;2022-10-16T04:27:31;17.40;85.40
59572;DHT22;59406;45.602;11.904;2022-10-16T04:30:00;17.50;85.20
59572;DHT22;59406;45.602;11.904;2022-10-16T04:32:27;17.40;85.30
59572;DHT22;59406;45.602;11.904;2022-10-16T04:34:53;17.40;85.10
59572;DHT22;59406;45.602;11.904;2022-10-16T04:37:22;17.40;85.10
59572;DHT22;59406;45.602;11.904;2022-10-16T04:39:48;17.30;85.20
59572;DHT22;59406;45.602;11.904;2022-10-16T04:42:14;17.30;85.20
59572;DHT22;59406;45.602;11.904;2022-10-16T04:44:40;17.30;84.90
59572;DHT22;59406;45.602;11.904;2022-10-16T04:47:06;17.40;84.90
59572;DHT22;59406;45.602;11.904;2022-10-16T04:49:32;17.30;84.70
59572;DHT22;59406;45.602;11.904;2022-10-16T04:51:58;17.20;84.60
59572;DHT22;59406;45.602;11.904;2022-10-16T04:54:24;17.20;84.80
59572;DHT22;59406;45.602;11.904;2022-10-16T04:56:50;17.20;84.90
59572;DHT22;59406;45.602;11.904;2022-10-16T04:59:19;17.10;84.90
59572;DHT22;59406;45.602;11.904;2022-10-16T05:01:45;17.10;84.80
59572;DHT22;59406;45.602;11.904;2022-10-16T05:04:11;17.00;84.70
59572;DHT22;59406;45.602;11.904;2022-10-16T05:06:38;17.10;84.70
59572;DHT22;59406;45.602;11.904;2022-10-16T05:09:05;17.00;84.60
59572;DHT22;59406;45.602;11.904;2022-10-16T05:11:31;17.00;84.60
59572;DHT22;59406;45.602;11.904;2022-10-16T05:13:57;17.00;84.70
59572;DHT22;59406;45.602;11.904;2022-10-16T05:16:23;16.90;84.70
59572;DHT22;59406;45.602;11.904;2022-10-16T05:18:49;16.90;84.80
59572;DHT22;59406;45.602;11.904;2022-10-16T05:21:16;16.90;84.90
59572;DHT22;59406;45.602;11.904;2022-10-16T05:23:42;16.80;85.00
59572;DHT22;59406;45.602;11.904;2022-10-16T05:26:08;16.70;85.00
59572;DHT22;59406;45.602;11.904;2022-10-16T05:28:33;16.80;84.80
59572;DHT22;59406;45.602;11.904;2022-10-16T05:31:07;16.80;84.70
59572;DHT22;59406;45.602;11.904;2022-10-16T05:33:34;16.70;84.90
59572;DHT22;59406;45.602;11.904;2022-10-16T05:36:05;16.80;84.80
59572;DHT22;59406;45.602;11.904;2022-10-16T05:38:32;16.70;84.90
59572;DHT22;59406;45.602;11.904;2022-10-16T05:40:59;16.60;84.90
59572;DHT22;59406;45.602;11.904;2022-10-16T05:43:26;16.60;84.80
59572;DHT22;59406;45.602;11.904;2022-10-16T05:45:57;16.60;84.80
59572;DHT22;59406;45.602;11.904;2022-10-16T05:48:24;16.50;84.90
59572;DHT22;59406;45.602;11.904;2022-10-16T05:51:04;16.50;84.90
59572;DHT22;59406;45.602;11.904;2022-10-16T05:53:33;16.50;85.10
59572;DHT22;59406;45.602;11.904;2022-10-16T05:56:00;16.50;85.00
59572;DHT22;59406;45.602;11.904;2022-10-16T05:58:34;16.50;85.10
59572;DHT22;59406;45.602;11.904;2022-10-16T06:01:06;16.60;84.90
59572;DHT22;59406;45.602;11.904;2022-10-16T06:03:34;16.60;84.70
59572;DHT22;59406;45.602;11.904;2022-10-16T06:06:09;16.70;84.80
59572;DHT22;59406;45.602;11.904;2022-10-16T06:08:36;16.60;84.70
59572;DHT22;59406;45.602;11.904;2022-10-16T06:11:04;16.70;84.60
59572;DHT22;59406;45.602;11.904;2022-10-16T06:13:30;16.70;84.30
59572;DHT22;59406;45.602;11.904;2022-10-16T06:15:58;16.70;84.40
59572;DHT22;59406;45.602;11.904;2022-10-16T06:18:26;16.80;84.40
59572;DHT22;59406;45.602;11.904;2022-10-16T06:20:52;16.80;84.10
59572;DHT22;59406;45.602;11.904;2022-10-16T06:23:18;17.00;84.10
59572;DHT22;59406;45.602;11.904;2022-10-16T06:25:44;17.00;84.20
59572;DHT22;59406;45.602;11.904;2022-10-16T06:28:10;17.10;84.10
59572;DHT22;59406;45.602;11.904;2022-10-16T06:30:36;17.20;83.90
59572;DHT22;59406;45.602;11.904;2022-10-16T06:33:02;17.20;84.10
59572;DHT22;59406;45.602;11.904;2022-10-16T06:35:28;17.30;84.00
59572;DHT22;59406;45.602;11.904;2022-10-16T06:37:55;17.40;83.80
59572;DHT22;59406;45.602;11.904;2022-10-16T06:40:21;17.50;83.70
59572;DHT22;59406;45.602;11.904;2022-10-16T06:42:47;17.70;83.70
59572;DHT22;59406;45.602;11.904;2022-10-16T06:45:13;17.80;83.60
59572;DHT22;59406;45.602;11.904;2022-10-16T06:47:39;17.90;83.60
59572;DHT22;59406;45.602;11.904;2022-10-16T06:50:05;18.30;82.00
59572;DHT22;59406;45.602;11.904;2022-10-16T06:52:33;18.50;81.90
59572;DHT22;59406;45.602;11.904;2022-10-16T06:54:59;18.60;81.70
59572;DHT22;59406;45.602;11.904;2022-10-16T06:57:26;18.80;81.40
59572;DHT22;59406;45.602;11.904;2022-10-16T06:59:52;18.90;81.20
59572;DHT22;59406;45.602;11.904;2022-10-16T07:02:18;19.10;80.90
59572;DHT22;59406;45.602;11.904;2022-10-16T07:04:44;19.20;80.90
59572;DHT22;59406;45.602;11.904;2022-10-16T07:07:09;19.20;80.90
59572;DHT22;59406;45.602;11.904;2022-10-16T07:09:35;19.40;80.90
59572;DHT22;59406;45.602;11.904;2022-10-16T07:12:01;19.60;80.70
59572;DHT22;59406;45.602;11.904;2022-10-16T07:14:27;19.70;80.40
59572;DHT22;59406;45.602;11.904;2022-10-16T07:16:54;20.00;80.20
59572;DHT22;59406;45.602;11.904;2022-10-16T07:19:20;20.20;80.00
59572;DHT22;59406;45.602;11.904;2022-10-16T07:21:46;20.20;79.80
59572;DHT22;59406;45.602;11.904;2022-10-16T07:24:14;20.50;79.50
59572;DHT22;59406;45.602;11.904;2022-10-16T07:26:42;20.40;79.40
59572;DHT22;59406;45.602;11.904;2022-10-16T07:29:26;20.70;79.30
59572;DHT22;59406;45.602;11.904;2022-10-16T07:31:52;20.80;78.80
59572;DHT22;59406;45.602;11.904;2022-10-16T07:34:21;20.90;77.60
59572;DHT22;59406;45.602;11.904;2022-10-16T07:36:50;20.90;77.50
59572;DHT22;59406;45.602;11.904;2022-10-16T07:39:17;20.90;77.40
59572;DHT22;59406;45.602;11.904;2022-10-16T07:41:43;20.80;78.60
59572;DHT22;59406;45.602;11.904;2022-10-16T07:44:09;20.80;78.70
59572;DHT22;59406;45.602;11.904;2022-10-16T07:46:35;20.80;78.70
59572;DHT22;59406;45.602;11.904;2022-10-16T07:49:03;20.90;78.80
59572;DHT22;59406;45.602;11.904;2022-10-16T07:51:29;20.90;78.90
59572;DHT22;59406;45.602;11.904;2022-10-16T07:53:55;21.20;77.40
59572;DHT22;59406;45.602;11.904;2022-10-16T07:56:22;21.40;77.00
59572;DHT22;59406;45.602;11.904;2022-10-16T07:58:48;21.60;76.60
59572;DHT22;59406;45.602;11.904;2022-10-16T08:01:17;21.80;76.50
59572;DHT22;59406;45.602;11.904;2022-10-16T08:03:45;22.00;76.00
59572;DHT22;59406;45.602;11.904;2022-10-16T08:06:12;22.10;76.00
59572;DHT22;59406;45.602;11.904;2022-10-16T08:08:38;22.40;75.70
59572;DHT22;59406;45.602;11.904;2022-10-16T08:11:04;22.50;75.30
59572;DHT22;59406;45.602;11.904;2022-10-16T08:13:31;23.30;74.80
59572;DHT22;59406;45.602;11.904;2022-10-16T08:15:57;23.70;75.10
59572;DHT22;59406;45.602;11.904;2022-10-16T08:18:23;23.90;74.90
59572;DHT22;59406;45.602;11.904;2022-10-16T08:20:55;24.00;74.90
59572;DHT22;59406;45.602;11.904;2022-10-16T08:23:22;24.40;74.20
59572;DHT22;59406;45.602;11.904;2022-10-16T08:25:48;24.80;73.90
59572;DHT22;59406;45.602;11.904;2022-10-16T08:28:14;24.90;73.70
59572;DHT22;59406;45.602;11.904;2022-10-16T08:30:41;25.00;73.30
59572;DHT22;59406;45.602;11.904;2022-10-16T08:33:07;25.40;73.20
59572;DHT22;59406;45.602;11.904;2022-10-16T08:35:33;25.90;72.40
59572;DHT22;59406;45.602;11.904;2022-10-16T08:37:59;26.10;71.80
59572;DHT22;59406;45.602;11.904;2022-10-16T08:40:28;26.70;71.90
59572;DHT22;59406;45.602;11.904;2022-10-16T08:51:08;27.50;69.70
59572;DHT22;59406;45.602;11.904;2022-10-16T08:54:01;27.90;70.60
59572;DHT22;59406;45.602;11.904;2022-10-16T08:56:28;27.90;67.70
59572;DHT22;59406;45.602;11.904;2022-10-16T08:58:55;27.60;70.50
59572;DHT22;59406;45.602;11.904;2022-10-16T09:01:25;27.40;70.80
59572;DHT22;59406;45.602;11.904;2022-10-16T09:12:26;28.50;67.80
59572;DHT22;59406;45.602;11.904;2022-10-16T09:20:50;29.20;64.00
59572;DHT22;59406;45.602;11.904;2022-10-16T09:23:26;28.70;65.00
59572;DHT22;59406;45.602;11.904;2022-10-16T09:25:53;28.50;66.20
59572;DHT22;59406;45.602;11.904;2022-10-16T09:28:20;28.70;68.70
59572;DHT22;59406;45.602;11.904;2022-10-16T09:30:47;29.20;65.50
59572;DHT22;59406;45.602;11.904;2022-10-16T09:33:19;29.60;65.00
59572;DHT22;59406;45.602;11.904;2022-10-16T09:35:51;29.60;63.30
59572;DHT22;59406;45.602;11.904;2022-10-16T09:40:52;30.10;61.60
59572;DHT22;59406;45.602;11.904;2022-10-16T09:43:38;30.50;61.90
59572;DHT22;59406;45.602;11.904;2022-10-16T09:46:08;30.30;61.30
59572;DHT22;59406;45.602;11.904;2022-10-16T09:48:49;30.40;62.80
59572;DHT22;59406;45.602;11.904;2022-10-16T09:51:37;30.70;61.10
59572;DHT22;59406;45.602;11.904;2022-10-16T09:56:36;31.60;58.70
59572;DHT22;59406;45.602;11.904;2022-10-16T09:59:20;31.50;59.80
59572;DHT22;59406;45.602;11.904;2022-10-16T10:01:50;30.90;59.40
59572;DHT22;59406;45.602;11.904;2022-10-16T10:04:22;30.40;59.70
59572;DHT22;59406;45.602;11.904;2022-10-16T10:06:53;30.60;60.10
59572;DHT22;59406;45.602;11.904;2022-10-16T10:09:30;30.80;58.30
59572;DHT22;59406;45.602;11.904;2022-10-16T10:12:22;30.10;60.90
59572;DHT22;59406;45.602;11.904;2022-10-16T10:14:55;31.20;57.60
59572;DHT22;59406;45.602;11.904;2022-10-16T10:17:23;31.50;59.50
59572;DHT22;59406;45.602;11.904;2022-10-16T10:20:00;31.80;58.20
59572;DHT22;59406;45.602;11.904;2022-10-16T10:28:11;31.70;56.30
59572;DHT22;59406;45.602;11.904;2022-10-16T10:39:39;31.20;58.40
59572;DHT22;59406;45.602;11.904;2022-10-16T10:42:22;31.30;58.40
59572;DHT22;59406;45.602;11.904;2022-10-16T10:50:55;32.20;53.50
59572;DHT22;59406;45.602;11.904;2022-10-16T10:53:32;31.90;54.30
59572;DHT22;59406;45.602;11.904;2022-10-16T11:02:26;31.50;56.10
59572;DHT22;59406;45.602;11.904;2022-10-16T11:05:23;31.90;53.20
59572;DHT22;59406;45.602;11.904;2022-10-16T11:08:04;32.30;54.30
59572;DHT22;59406;45.602;11.904;2022-10-16T11:11:13;32.50;52.50
59572;DHT22;59406;45.602;11.904;2022-10-16T11:14:00;32.50;53.30
59572;DHT22;59406;45.602;11.904;2022-10-16T11:16:30;32.80;52.00
59572;DHT22;59406;45.602;11.904;2022-10-16T11:21:46;33.40;49.30
59572;DHT22;59406;45.602;11.904;2022-10-16T11:24:35;33.60;50.40
59572;DHT22;59406;45.602;11.904;2022-10-16T11:27:07;34.00;48.80
59572;DHT22;59406;45.602;11.904;2022-10-16T11:29:50;33.80;49.40
59572;DHT22;59406;45.602;11.904;2022-10-16T11:32:27;34.20;47.80
59572;DHT22;59406;45.602;11.904;2022-10-16T11:34:59;33.90;48.50
59572;DHT22;59406;45.602;11.904;2022-10-16T11:37:32;33.90;47.70
59572;DHT22;59406;45.602;11.904;2022-10-16T11:40:25;33.70;48.70
59572;DHT22;59406;45.602;11.904;2022-10-16T11:42:57;34.00;49.40
59572;DHT22;59406;45.602;11.904;2022-10-16T11:45:36;34.20;47.80
59572;DHT22;59406;45.602;11.904;2022-10-16T11:54:45;35.30;44.20
59572;DHT22;59406;45.602;11.904;2022-10-16T11:57:24;34.70;44.70
59572;DHT22;59406;45.602;11.904;2022-10-16T12:00:17;34.10;46.10
59572;DHT22;59406;45.602;11.904;2022-10-16T12:03:08;33.90;47.70
59572;DHT22;59406;45.602;11.904;2022-10-16T12:08:21;34.00;46.70
59572;DHT22;59406;45.602;11.904;2022-10-16T12:10:48;33.60;49.30
59572;DHT22;59406;45.602;11.904;2022-10-16T12:13:46;32.90;50.10
59572;DHT22;59406;45.602;11.904;2022-10-16T12:18:44;33.20;49.50
59572;DHT22;59406;45.602;11.904;2022-10-16T12:21:12;33.80;48.50
59572;DHT22;59406;45.602;11.904;2022-10-16T12:23:57;34.10;48.90
59572;DHT22;59406;45.602;11.904;2022-10-16T12:26:30;34.50;44.80
59572;DHT22;59406;45.602;11.904;2022-10-16T12:29:13;34.90;45.80
59572;DHT22;59406;45.602;11.904;2022-10-16T12:31:45;34.60;45.70
59572;DHT22;59406;45.602;11.904;2022-10-16T12:34:28;34.20;47.80
59572;DHT22;59406;45.602;11.904;2022-10-16T12:36:56;33.70;47.20
59572;DHT22;59406;45.602;11.904;2022-10-16T12:39:33;33.90;48.90
59572;DHT22;59406;45.602;11.904;2022-10-16T12:42:04;33.90;48.80
59572;DHT22;59406;45.602;11.904;2022-10-16T12:44:35;33.50;48.60
59572;DHT22;59406;45.602;11.904;2022-10-16T12:47:02;33.30;48.00
59572;DHT22;59406;45.602;11.904;2022-10-16T12:51:54;32.10;51.10
59572;DHT22;59406;45.602;11.904;2022-10-16T12:54:29;31.50;53.10
59572;DHT22;59406;45.602;11.904;2022-10-16T13:10:44;31.90;51.00
59572;DHT22;59406;45.602;11.904;2022-10-16T13:21:51;31.60;50.50
59572;DHT22;59406;45.602;11.904;2022-10-16T13:27:31;30.50;54.30
59572;DHT22;59406;45.602;11.904;2022-10-16T13:30:29;30.40;52.30
59572;DHT22;59406;45.602;11.904;2022-10-16T13:35:50;31.50;52.30
59572;DHT22;59406;45.602;11.904;2022-10-16T13:38:21;32.50;47.70
59572;DHT22;59406;45.602;11.904;2022-10-16T13:41:17;33.30;46.80
59572;DHT22;59406;45.602;11.904;2022-10-16T13:43:51;33.70;45.20
59572;DHT22;59406;45.602;11.904;2022-10-16T13:46:23;32.70;47.90
59572;DHT22;59406;45.602;11.904;2022-10-16T13:49:10;32.50;48.20
59572;DHT22;59406;45.602;11.904;2022-10-16T13:51:37;32.20;47.80
59572;DHT22;59406;45.602;11.904;2022-10-16T13:54:03;31.90;49.30
59572;DHT22;59406;45.602;11.904;2022-10-16T13:56:31;32.10;49.40
59572;DHT22;59406;45.602;11.904;2022-10-16T13:59:05;32.50;48.80
59572;DHT22;59406;45.602;11.904;2022-10-16T14:01:34;32.50;47.40
59572;DHT22;59406;45.602;11.904;2022-10-16T14:04:04;32.70;47.70
59572;DHT22;59406;45.602;11.904;2022-10-16T14:06:31;33.40;47.30
59572;DHT22;59406;45.602;11.904;2022-10-16T14:09:04;33.60;46.40
59572;DHT22;59406;45.602;11.904;2022-10-16T14:11:33;33.70;46.80
59572;DHT22;59406;45.602;11.904;2022-10-16T14:14:00;33.80;45.70
59572;DHT22;59406;45.602;11.904;2022-10-16T14:16:29;33.50;46.70
59572;DHT22;59406;45.602;11.904;2022-10-16T14:19:04;33.50;46.80
59572;DHT22;59406;45.602;11.904;2022-10-16T14:21:36;33.80;46.20
59572;DHT22;59406;45.602;11.904;2022-10-16T14:24:31;33.70;46.80
59572;DHT22;59406;45.602;11.904;2022-10-16T14:27:00;33.80;45.10
59572;DHT22;59406;45.602;11.904;2022-10-16T14:29:28;33.10;47.30
59572;DHT22;59406;45.602;11.904;2022-10-16T14:32:20;32.30;48.80
59572;DHT22;59406;45.602;11.904;2022-10-16T14:34:53;32.70;46.50
59572;DHT22;59406;45.602;11.904;2022-10-16T14:37:27;32.70;46.40
59572;DHT22;59406;45.602;11.904;2022-10-16T14:39:54;32.40;47.00
59572;DHT22;59406;45.602;11.904;2022-10-16T14:42:24;32.30;48.80
59572;DHT22;59406;45.602;11.904;2022-10-16T14:44:54;32.40;48.60
59572;DHT22;59406;45.602;11.904;2022-10-16T14:47:25;32.40;48.40
59572;DHT22;59406;45.602;11.904;2022-10-16T14:49:53;32.10;47.10
59572;DHT22;59406;45.602;11.904;2022-10-16T14:52:24;31.50;50.50
59572;DHT22;59406;45.602;11.904;2022-10-16T14:54:51;31.30;51.70
59572;DHT22;59406;45.602;11.904;2022-10-16T14:57:26;30.80;52.70
59572;DHT22;59406;45.602;11.904;2022-10-16T14:59:53;30.40;52.50
59572;DHT22;59406;45.602;11.904;2022-10-16T15:04:48;29.20;56.30
59572;DHT22;59406;45.602;11.904;2022-10-16T15:07:15;28.80;58.80
59572;DHT22;59406;45.602;11.904;2022-10-16T15:09:41;28.60;59.00
59572;DHT22;59406;45.602;11.904;2022-10-16T15:12:07;28.60;59.20
59572;DHT22;59406;45.602;11.904;2022-10-16T15:14:33;28.70;59.50
59572;DHT22;59406;45.602;11.904;2022-10-16T15:16:59;28.60;59.40
59572;DHT22;59406;45.602;11.904;2022-10-16T15:19:25;28.60;59.00
59572;DHT22;59406;45.602;11.904;2022-10-16T15:21:51;28.40;59.70
59572;DHT22;59406;45.602;11.904;2022-10-16T15:24:18;28.20;59.90
59572;DHT22;59406;45.602;11.904;2022-10-16T15:26:44;28.20;59.70
59572;DHT22;59406;45.602;11.904;2022-10-16T15:29:12;28.00;59.80
59572;DHT22;59406;45.602;11.904;2022-10-16T15:31:38;28.00;60.00
59572;DHT22;59406;45.602;11.904;2022-10-16T15:34:09;27.80;60.20
59572;DHT22;59406;45.602;11.904;2022-10-16T15:36:37;27.70;60.80
59572;DHT22;59406;45.602;11.904;2022-10-16T15:39:15;27.40;61.50
59572;DHT22;59406;45.602;11.904;2022-10-16T15:41:42;27.40;62.00
59572;DHT22;59406;45.602;11.904;2022-10-16T15:44:08;27.20;62.20
59572;DHT22;59406;45.602;11.904;2022-10-16T15:46:34;27.00;62.30
59572;DHT22;59406;45.602;11.904;2022-10-16T15:49:01;26.90;63.00
59572;DHT22;59406;45.602;11.904;2022-10-16T15:51:28;26.70;63.40
59572;DHT22;59406;45.602;11.904;2022-10-16T15:53:59;26.60;63.70
59572;DHT22;59406;45.602;11.904;2022-10-16T15:56:27;26.40;64.60
59572;DHT22;59406;45.602;11.904;2022-10-16T15:58:55;26.30;66.70
59572;DHT22;59406;45.602;11.904;2022-10-16T16:01:21;26.10;67.20
59572;DHT22;59406;45.602;11.904;2022-10-16T16:03:47;25.90;67.40
59572;DHT22;59406;45.602;11.904;2022-10-16T16:06:14;25.70;67.70
59572;DHT22;59406;45.602;11.904;2022-10-16T16:08:41;25.30;68.10
59572;DHT22;59406;45.602;11.904;2022-10-16T16:11:09;24.90;68.60
59572;DHT22;59406;45.602;11.904;2022-10-16T16:13:36;24.80;69.00
59572;DHT22;59406;45.602;11.904;2022-10-16T16:16:12;24.60;69.40
59572;DHT22;59406;45.602;11.904;2022-10-16T16:18:39;24.50;70.00
59572;DHT22;59406;45.602;11.904;2022-10-16T16:21:06;24.40;69.60
59572;DHT22;59406;45.602;11.904;2022-10-16T16:23:33;24.20;70.10
59572;DHT22;59406;45.602;11.904;2022-10-16T16:26:12;24.10;70.00
59572;DHT22;59406;45.602;11.904;2022-10-16T16:28:40;24.00;70.90
59572;DHT22;59406;45.602;11.904;2022-10-16T16:31:07;23.90;70.10
59572;DHT22;59406;45.602;11.904;2022-10-16T16:33:33;23.80;70.10
59572;DHT22;59406;45.602;11.904;2022-10-16T16:36:01;23.60;70.40
59572;DHT22;59406;45.602;11.904;2022-10-16T16:38:27;23.60;69.90
59572;DHT22;59406;45.602;11.904;2022-10-16T16:40:53;23.40;70.10
59572;DHT22;59406;45.602;11.904;2022-10-16T16:43:23;23.20;70.60
59572;DHT22;59406;45.602;11.904;2022-10-16T16:45:50;23.10;70.70
59572;DHT22;59406;45.602;11.904;2022-10-16T16:48:15;22.90;70.60
59572;DHT22;59406;45.602;11.904;2022-10-16T16:50:41;22.90;71.00
59572;DHT22;59406;45.602;11.904;2022-10-16T16:53:07;22.40;71.80
59572;DHT22;59406;45.602;11.904;2022-10-16T16:55:33;22.20;71.70
59572;DHT22;59406;45.602;11.904;2022-10-16T16:58:00;22.10;71.90
59572;DHT22;59406;45.602;11.904;2022-10-16T17:00:26;22.10;71.90
59572;DHT22;59406;45.602;11.904;2022-10-16T17:02:52;22.00;71.90
59572;DHT22;59406;45.602;11.904;2022-10-16T17:05:18;21.90;72.10
59572;DHT22;59406;45.602;11.904;2022-10-16T17:07:44;21.90;72.10
59572;DHT22;59406;45.602;11.904;2022-10-16T17:10:10;21.80;72.20
59572;DHT22;59406;45.602;11.904;2022-10-16T17:12:36;21.80;72.20
59572;DHT22;59406;45.602;11.904;2022-10-16T17:15:03;21.70;72.40
59572;DHT22;59406;45.602;11.904;2022-10-16T17:17:29;21.70;72.30
59572;DHT22;59406;45.602;11.904;2022-10-16T17:19:54;21.60;72.30
59572;DHT22;59406;45.602;11.904;2022-10-16T17:22:21;21.60;72.40
59572;DHT22;59406;45.602;11.904;2022-10-16T17:24:50;21.50;72.60
59572;DHT22;59406;45.602;11.904;2022-10-16T17:27:19;21.50;72.90